Sligo Airport - TAF
(Terminal Area Forecast)

Issued at 17:36 UTC on Thu. 2-Apr-20

--- METARS(SA) ---

METAR EISG(SLIGO) 021730Z 31013KT 9999 SCT023 BKN037 08/04 Q1017 =

--- TAFS() ---

TAF EISG(SLIGO) 021700Z 0218/0303 30013KT 9999 FEW015 BKN032 BECMG

0301/0303 27008KT =

--- SIGMETS(WS) ---

IE - No VALID SIGMETS/Warnings FOR THIS AREA

--- SIGMETS Volcanic(WV) ---

IE - No VALID SIGMETS/Warnings FOR THIS AREA

--- SIGMETS(WS) ---

EGPX SIGMET 07 VALID 021430/021830 EGRR- EGPX

SCOTTISH FIR SEV TURB FCST WI N5620 W00118 - N5827 W00345 -

N6100 W00216 - N6100 E00000 - N6000 E00000 - N5700 E00500 - N5614

E00500 - N5620 W00118 SFC/FL060 MOV E 30KT WKN=

EGPX SIGMET 08 VALID 021430/021830 EGRR- EGPX

SCOTTISH FIR SEV MTW FCST WI N5500 W00420 - N5511 W00440 - N5714

W00523 - N5656 W00211 - N5500 W00019 - N5500 W00420 FL030/250

STNR WKN=

EGTT SIGMET 04 VALID 021430/021830 EGRR- EGTT

LONDON FIR SEV MTW FCST WI N5329 E00109 - N5337 W00152 - N5500

W00420 - N5500 W00019 - N5329 E00109 FL030/250 STNR WKN=

Sligo Airport - METARs

Latest METARs for Sligo and Donegal Airports - updated every 30 mins